Time;durP1;ratioP1;P1;durP2;ratioP2;P2;SDS_P1;SDS_P2;PMS_P1;PMS_P2;Temp;Humidity;BMP_temperature;BMP_pressure;BME280_temperature;BME280_humidity;BME280_pressure;Samples;Min_cycle;Max_cycle;Signal;HPM_P1;HPM_P2
2022/05/13 00:02:15;;;;;;;0.40;0.40;;;;;;;16.67;44.88;101289.38;5129513;28;20027;-79
2022/05/13 00:04:45;;;;;;;0.40;0.40;;;;;;;16.60;45.32;101285.28;5109258;28;20042;-79
2022/05/13 00:07:16;;;;;;;2.42;1.40;;;;;;;16.59;45.33;101279.09;5127586;28;20037;-79
2022/05/13 00:10:00;;;;;;;0.25;0.25;;;;;;;16.52;45.36;101286.47;5121840;28;20093;-79
2022/05/13 00:12:35;;;;;;;0.90;0.50;;;;;;;16.53;45.38;101282.00;5108854;28;20035;-79
2022/05/13 00:15:10;;;;;;;0.30;0.30;;;;;;;16.63;45.50;101278.03;5106236;28;20039;-79
2022/05/13 00:17:40;;;;;;;0.40;0.40;;;;;;;16.52;45.16;101281.16;5138837;28;20045;-79
2022/05/13 00:20:12;;;;;;;0.30;0.30;;;;;;;16.47;45.27;101280.50;5139167;28;20034;-79
2022/05/13 00:22:56;;;;;;;0.32;0.32;;;;;;;16.36;45.32;101286.25;5106949;28;20031;-79
2022/05/13 00:25:35;;;;;;;0.20;0.20;;;;;;;16.29;45.53;101297.16;5136599;28;20038;-79
2022/05/13 00:28:08;;;;;;;0.93;0.93;;;;;;;16.27;45.07;101288.44;5121689;28;20389;-79
2022/05/13 00:30:41;;;;;;;0.68;0.68;;;;;;;16.28;45.14;101285.72;5137578;28;20039;-79
2022/05/13 00:33:12;;;;;;;0.57;0.57;;;;;;;16.18;45.22;101276.41;5140699;28;20106;-79
2022/05/13 00:35:43;;;;;;;1.10;1.05;;;;;;;16.17;45.35;101280.00;5122570;28;20236;-79
2022/05/13 00:38:13;;;;;;;0.82;0.80;;;;;;;16.13;44.89;101271.31;5121412;28;20059;-79
2022/05/13 00:40:46;;;;;;;0.73;0.73;;;;;;;16.10;45.14;101275.88;5158169;28;20786;-79
2022/05/13 00:43:41;;;;;;;0.40;0.40;;;;;;;16.08;45.23;101281.25;5122725;28;20026;-79
2022/05/13 00:46:12;;;;;;;0.50;0.50;;;;;;;16.04;45.47;101283.16;5131959;28;20043;-79
2022/05/13 00:48:43;;;;;;;3.30;0.68;;;;;;;16.10;45.35;101282.06;5138570;28;20047;-79
2022/05/13 00:51:18;;;;;;;0.95;0.73;;;;;;;16.04;45.33;101266.41;5101533;28;20711;-79
2022/05/13 00:53:49;;;;;;;0.30;0.30;;;;;;;15.96;45.67;101266.72;5137222;28;20042;-79
2022/05/13 00:56:22;;;;;;;0.20;0.20;;;;;;;15.91;45.74;101270.50;5137922;28;20425;-79
2022/05/13 00:58:57;;;;;;;0.60;0.60;;;;;;;15.86;45.63;101270.66;5121277;28;20534;-79
2022/05/13 01:01:28;;;;;;;2.72;0.73;;;;;;;15.82;46.51;101271.69;5122106;28;20038;-79
2022/05/13 01:04:03;;;;;;;0.30;0.30;;;;;;;15.80;46.16;101273.53;5128245;28;20035;-79
2022/05/13 01:06:37;;;;;;;0.50;0.50;;;;;;;15.78;46.19;101275.38;5119157;28;20449;-80
2022/05/13 01:09:08;;;;;;;;;;;;;;;15.74;46.36;101270.19;5105099;28;20049;-79
2022/05/13 01:11:40;;;;;;;0.22;0.22;;;;;;;15.69;46.71;101266.03;5129185;28;19913;-79
2022/05/13 01:14:24;;;;;;;0.35;0.35;;;;;;;15.71;46.75;101269.47;5138627;28;20039;-79
2022/05/13 01:20:26;;;;;;;2.80;1.02;;;;;;;15.65;46.46;101275.00;5137536;28;20054;-79
2022/05/13 01:23:01;;;;;;;2.25;1.30;;;;;;;15.64;46.81;101274.16;5122502;28;20642;-79
2022/05/13 01:25:34;;;;;;;0.35;0.35;;;;;;;15.57;46.71;101267.38;5136022;28;20051;-79
2022/05/13 01:28:08;;;;;;;0.95;0.95;;;;;;;15.53;46.69;101261.38;5160224;28;20039;-79
2022/05/13 01:30:48;;;;;;;0.22;0.22;;;;;;;15.51;46.71;101267.59;5120038;28;20047;-79
2022/05/13 01:33:20;;;;;;;0.60;0.60;;;;;;;15.48;46.88;101273.03;5120427;28;20035;-79
2022/05/13 01:35:55;;;;;;;0.40;0.40;;;;;;;15.46;47.00;101273.06;5138745;28;20121;-79
2022/05/13 01:38:32;;;;;;;0.20;0.20;;;;;;;15.43;47.06;101274.06;5105578;28;20027;-79
2022/05/13 01:41:05;;;;;;;0.30;0.30;;;;;;;15.45;47.06;101279.31;5136468;28;20040;-80
2022/05/13 01:43:37;;;;;;;1.02;0.82;;;;;;;15.38;47.07;101277.78;5137639;28;20031;-79
2022/05/13 01:46:09;;;;;;;0.20;0.20;;;;;;;15.36;47.19;101274.38;5120531;28;20023;-79
2022/05/13 01:48:40;;;;;;;0.65;0.65;;;;;;;15.33;46.97;101275.31;5135168;28;20603;-79
2022/05/13 01:51:11;;;;;;;0.28;0.28;;;;;;;15.26;47.85;101273.84;5130140;28;20046;-79
2022/05/13 01:53:42;;;;;;;2.63;0.77;;;;;;;15.18;47.76;101276.78;5107748;28;20026;-79
2022/05/13 01:56:13;;;;;;;9.57;1.75;;;;;;;15.17;47.76;101269.78;5135950;28;20660;-80
2022/05/13 01:58:44;;;;;;;0.40;0.40;;;;;;;15.18;47.55;101262.69;5137211;28;20038;-79
2022/05/13 02:01:14;;;;;;;0.47;0.47;;;;;;;15.17;47.60;101268.91;5138564;28;20035;-79
2022/05/13 02:03:45;;;;;;;0.60;0.60;;;;;;;15.16;47.80;101273.34;5120377;28;20027;-79
2022/05/13 02:06:17;;;;;;;1.38;1.27;;;;;;;15.18;48.09;101281.19;5109813;28;20101;-79
2022/05/13 02:08:48;;;;;;;0.28;0.28;;;;;;;15.08;47.95;101273.59;5107425;28;20039;-80
2022/05/13 02:11:20;;;;;;;0.52;0.52;;;;;;;15.09;48.41;101272.69;5121549;28;20113;-79
2022/05/13 02:13:51;;;;;;;0.20;0.20;;;;;;;15.10;47.60;101266.50;5104360;28;20476;-79
2022/05/13 02:16:23;;;;;;;0.20;0.20;;;;;;;15.17;47.55;101268.91;5121597;28;20526;-79
2022/05/13 02:18:57;;;;;;;1.35;1.20;;;;;;;15.10;48.43;101269.13;5123982;28;20046;-80
2022/05/13 02:21:27;;;;;;;0.20;0.20;;;;;;;15.02;48.77;101276.47;5144268;28;20031;-79
2022/05/13 02:23:58;;;;;;;1.42;1.05;;;;;;;14.91;48.38;101273.41;5135975;28;20031;-79
2022/05/13 02:26:28;;;;;;;1.02;0.70;;;;;;;14.78;49.39;101273.81;5120099;28;20707;-79
2022/05/13 02:29:01;;;;;;;0.68;0.65;;;;;;;14.55;50.32;101271.09;5119174;28;20196;-79
2022/05/13 02:31:32;;;;;;;3.20;0.45;;;;;;;14.62;49.52;101277.88;5107639;28;20025;-79
2022/05/13 02:34:02;;;;;;;0.40;0.40;;;;;;;14.67;49.92;101291.81;5141705;28;20058;-79
2022/05/13 02:36:33;;;;;;;0.30;0.30;;;;;;;14.51;49.91;101296.75;5141306;28;20073;-79
2022/05/13 02:39:03;;;;;;;0.65;0.30;;;;;;;14.44;49.80;101284.69;5133917;28;20768;-79
2022/05/13 02:41:34;;;;;;;0.25;0.25;;;;;;;14.43;49.71;101285.59;5116622;28;20792;-79
2022/05/13 02:44:05;;;;;;;0.50;0.50;;;;;;;14.43;50.07;101283.81;5135786;28;20039;-79
2022/05/13 02:46:36;;;;;;;1.00;0.65;;;;;;;14.46;49.52;101289.00;5104871;28;20022;-79
2022/05/13 02:49:06;;;;;;;0.80;0.80;;;;;;;14.32;50.59;101288.59;5137010;28;20039;-79
2022/05/13 02:51:37;;;;;;;0.68;0.68;;;;;;;14.38;49.97;101290.19;5136894;28;20046;-79
2022/05/13 02:54:11;;;;;;;0.30;0.30;;;;;;;14.28;49.97;101292.25;5120342;28;20525;-79
2022/05/13 02:56:42;;;;;;;0.38;0.38;;;;;;;14.26;49.77;101286.16;5134669;28;20084;-79
2022/05/13 02:59:12;;;;;;;1.45;1.10;;;;;;;13.99;51.07;101291.44;5119483;28;20031;-79
2022/05/13 03:01:43;;;;;;;3.45;1.02;;;;;;;14.10;50.78;101289.31;5137234;28;20034;-79
2022/05/13 03:04:13;;;;;;;0.30;0.30;;;;;;;14.03;50.82;101286.94;5106270;28;20070;-79
2022/05/13 03:06:47;;;;;;;0.68;0.68;;;;;;;13.91;51.10;101282.91;5138609;28;20039;-79
2022/05/13 03:09:18;;;;;;;0.60;0.60;;;;;;;13.91;51.09;101288.19;5150509;28;20129;-79
2022/05/13 03:11:49;;;;;;;0.20;0.20;;;;;;;13.81;51.65;101290.22;5136894;28;20429;-79
2022/05/13 03:14:19;;;;;;;0.30;0.30;;;;;;;13.83;50.88;101291.94;5140098;28;20047;-79
2022/05/13 03:16:50;;;;;;;2.97;0.98;;;;;;;13.84;50.71;101284.88;5119730;28;20641;-79
2022/05/13 03:19:20;;;;;;;0.52;0.52;;;;;;;13.83;51.03;101278.75;5135603;28;20034;-79
2022/05/13 03:21:50;;;;;;;0.15;0.15;;;;;;;13.84;50.83;101274.31;5105166;28;20082;-79
2022/05/13 03:24:21;;;;;;;0.20;0.20;;;;;;;13.89;50.37;101274.19;5122441;28;20094;-79
2022/05/13 03:26:51;;;;;;;0.38;0.38;;;;;;;13.93;50.90;101271.41;5136377;28;20053;-79
2022/05/13 03:29:22;;;;;;;0.40;0.40;;;;;;;13.75;50.87;101280.78;5128981;28;20114;-79
2022/05/13 03:31:52;;;;;;;0.28;0.28;;;;;;;13.72;50.88;101270.31;5115173;29;20110;-78
2022/05/13 03:34:23;;;;;;;0.70;0.70;;;;;;;13.59;51.74;101274.25;5107079;28;20043;-79
2022/05/13 03:36:54;;;;;;;0.40;0.40;;;;;;;13.70;51.21;101274.75;5141727;28;20038;-80
2022/05/13 03:39:25;;;;;;;3.80;1.23;;;;;;;13.56;52.36;101279.59;5143029;28;20631;-79
2022/05/13 03:41:55;;;;;;;0.47;0.47;;;;;;;13.65;51.04;101279.31;5125756;29;20172;-79
2022/05/13 03:44:26;;;;;;;0.57;0.57;;;;;;;13.65;51.21;101284.59;5152157;28;20047;-79
2022/05/13 03:46:56;;;;;;;3.80;2.25;;;;;;;13.60;51.82;101270.66;5140965;28;20680;-79
2022/05/13 03:49:27;;;;;;;0.30;0.30;;;;;;;13.50;51.73;101276.25;5139374;28;20066;-79
2022/05/13 03:51:58;;;;;;;0.77;0.55;;;;;;;13.51;52.12;101277.94;5123778;28;20658;-79
2022/05/13 03:54:28;;;;;;;1.38;1.23;;;;;;;13.45;51.68;101272.88;5122688;28;20046;-79
2022/05/13 03:56:59;;;;;;;0.20;0.20;;;;;;;13.30;52.70;101273.31;5142070;28;20034;-80
2022/05/13 03:59:29;;;;;;;0.57;0.57;;;;;;;13.46;51.45;101282.50;5151975;28;20027;-79
2022/05/13 04:02:00;;;;;;;0.13;0.13;;;;;;;13.58;51.61;101277.78;5125926;28;20042;-78
2022/05/13 04:08:56;;;;;;;0.32;0.32;;;;;;;13.45;53.28;101278.16;5143065;28;20046;-78
2022/05/13 04:10:11;;;;;;;0.25;0.25;;;;;;;13.36;53.13;101267.84;5117176;28;20094;-79
2022/05/13 04:18:20;;;;;;;0.45;0.45;;;;;;;13.45;52.43;101283.41;5117007;29;20042;-78
2022/05/13 04:20:50;;;;;;;0.38;0.38;;;;;;;13.25;53.63;101288.41;5101949;29;20043;-78
2022/05/13 04:23:21;;;;;;;0.20;0.20;;;;;;;13.21;53.76;101291.13;5102511;29;20027;-78
2022/05/13 04:25:51;;;;;;;0.55;0.55;;;;;;;13.17;54.82;101300.03;5117680;28;20057;-79
2022/05/13 04:28:22;;;;;;;0.50;0.50;;;;;;;13.11;54.79;101299.34;5118743;29;20031;-79
2022/05/13 04:30:52;;;;;;;1.88;1.10;;;;;;;13.11;53.95;101305.44;5085971;29;20141;-78
2022/05/13 04:33:23;;;;;;;0.30;0.30;;;;;;;13.20;54.00;101305.19;5127082;29;20026;-80
2022/05/13 04:35:53;;;;;;;3.00;0.95;;;;;;;13.28;53.64;101302.34;5164678;28;20030;-80
2022/05/13 04:38:24;;;;;;;0.55;0.55;;;;;;;13.10;54.87;101305.50;5154672;28;20044;-79
2022/05/13 04:40:54;;;;;;;0.50;0.40;;;;;;;12.99;55.51;101306.66;5145073;28;20054;-79
2022/05/13 04:43:32;;;;;;;0.77;0.77;;;;;;;13.02;55.40;101310.97;5122805;28;20030;-78
2022/05/13 04:46:02;;;;;;;1.75;1.63;;;;;;;13.02;55.52;101300.44;5153093;28;20039;-79
2022/05/13 04:48:32;;;;;;;1.55;0.82;;;;;;;12.90;55.82;101310.44;5115588;28;20087;-79
2022/05/13 04:51:03;;;;;;;0.20;0.20;;;;;;;13.02;55.43;101309.22;5122285;28;20408;-79
2022/05/13 04:53:36;;;;;;;0.85;0.85;;;;;;;13.15;54.50;101325.56;5120708;28;20068;-79
2022/05/13 04:56:10;;;;;;;0.95;0.95;;;;;;;13.09;56.03;101320.47;5120121;28;20046;-78
2022/05/13 04:58:41;;;;;;;0.20;0.20;;;;;;;13.05;56.32;101313.53;5121468;28;20117;-78
2022/05/13 05:01:13;;;;;;;0.40;0.40;;;;;;;12.95;56.55;101325.22;5134234;28;20505;-78
2022/05/13 05:03:44;;;;;;;1.30;0.90;;;;;;;12.98;56.05;101325.16;5125334;28;20042;-78
2022/05/13 05:06:16;;;;;;;0.50;0.50;;;;;;;12.88;56.92;101324.53;5105568;28;20035;-78
2022/05/13 05:08:48;;;;;;;0.50;0.50;;;;;;;13.10;55.32;101322.16;5123687;28;20030;-79
2022/05/13 05:11:19;;;;;;;0.38;0.38;;;;;;;12.99;56.05;101335.63;5121103;28;20093;-79
2022/05/13 05:13:51;;;;;;;2.97;0.93;;;;;;;13.09;54.74;101333.63;5104193;28;20482;-79
2022/05/13 05:16:22;;;;;;;0.20;0.20;;;;;;;13.03;56.28;101334.66;5104104;28;20030;-79
2022/05/13 05:18:52;;;;;;;1.20;1.02;;;;;;;13.09;56.03;101336.28;5146197;28;20031;-80
2022/05/13 05:21:23;;;;;;;0.30;0.30;;;;;;;12.98;56.20;101339.16;5110410;28;20030;-81
2022/05/13 05:23:55;;;;;;;0.20;0.20;;;;;;;12.98;56.22;101343.59;5107606;28;20041;-81
2022/05/13 05:26:26;;;;;;;1.13;0.73;;;;;;;13.10;55.85;101348.50;5122802;28;20031;-80
2022/05/13 05:28:56;;;;;;;0.55;0.55;;;;;;;13.13;56.10;101345.78;5122364;28;20038;-80
2022/05/13 05:31:26;;;;;;;0.95;0.93;;;;;;;13.11;56.35;101352.03;5143552;28;20058;-83
2022/05/13 05:33:57;;;;;;;0.30;0.30;;;;;;;13.15;57.15;101351.91;5125499;28;20082;-79
2022/05/13 05:36:28;;;;;;;0.63;0.63;;;;;;;13.19;56.35;101358.78;5123575;28;20092;-78
2022/05/13 05:38:58;;;;;;;0.75;0.75;;;;;;;13.24;55.91;101358.66;5138034;28;20661;-79
2022/05/13 05:41:31;;;;;;;0.50;0.50;;;;;;;13.25;55.97;101363.03;5138441;28;20026;-79
2022/05/13 05:44:03;;;;;;;0.32;0.32;;;;;;;13.26;56.22;101366.56;5119567;28;20284;-79
2022/05/13 05:46:33;;;;;;;0.30;0.30;;;;;;;13.19;56.46;101366.69;5117811;28;20037;-79
2022/05/13 05:49:04;;;;;;;14.05;1.05;;;;;;;13.20;57.30;101363.16;5120109;28;20039;-79
2022/05/13 05:51:35;;;;;;;0.30;0.30;;;;;;;13.23;56.61;101367.47;5120227;28;20047;-82
2022/05/13 05:57:16;;;;;;;0.47;0.47;;;;;;;13.33;55.70;101373.38;5123084;28;20039;-79
2022/05/13 05:59:46;;;;;;;0.30;0.30;;;;;;;13.13;57.15;101374.78;5145028;28;20042;-81
2022/05/13 06:02:17;;;;;;;2.08;1.58;;;;;;;13.22;56.49;101376.31;5116509;28;20134;-79
2022/05/13 06:04:50;;;;;;;0.20;0.20;;;;;;;13.26;56.98;101372.66;5127978;28;20039;-78
2022/05/13 06:07:20;;;;;;;1.80;0.60;;;;;;;13.16;57.62;101376.47;5136930;28;20330;-78
2022/05/13 06:09:51;;;;;;;1.33;1.23;;;;;;;13.33;56.16;101389.19;5109343;28;20047;-78
2022/05/13 06:12:21;;;;;;;0.50;0.50;;;;;;;13.23;57.15;101384.16;5116927;28;20062;-77
2022/05/13 06:14:52;;;;;;;0.30;0.30;;;;;;;13.32;57.04;101384.81;5114641;28;20039;-78
2022/05/13 06:17:23;;;;;;;7.65;0.82;;;;;;;13.24;56.54;101379.75;5113866;29;20070;-80
2022/05/13 06:19:53;;;;;;;0.65;0.65;;;;;;;13.35;56.22;101380.31;5084288;29;20118;-78
2022/05/13 06:22:24;;;;;;;7.35;2.70;;;;;;;13.33;57.06;101378.66;5116302;29;20033;-80
2022/05/13 06:24:54;;;;;;;0.40;0.40;;;;;;;13.35;56.94;101387.34;5084624;29;20047;-78
2022/05/13 06:27:25;;;;;;;0.30;0.30;;;;;;;13.30;56.97;101378.72;5112958;29;20073;-78
2022/05/13 06:29:56;;;;;;;1.75;1.55;;;;;;;13.36;57.01;101391.72;5098353;29;20031;-78
2022/05/13 06:32:27;;;;;;;4.32;1.42;;;;;;;13.38;57.74;101389.91;5119445;28;20039;-77
2022/05/13 06:34:57;;;;;;;0.55;0.55;;;;;;;13.31;58.11;101393.63;5109654;28;20058;-82
2022/05/13 06:37:28;;;;;;;0.45;0.45;;;;;;;13.48;56.76;101388.78;5142602;28;20026;-78
2022/05/13 06:39:59;;;;;;;12.27;1.52;;;;;;;13.47;56.74;101400.22;5123367;28;20078;-80
2022/05/13 06:42:30;;;;;;;0.32;0.32;;;;;;;13.52;56.54;101400.94;5103648;29;20043;-79
2022/05/13 06:45:00;;;;;;;1.35;1.27;;;;;;;13.53;57.74;101407.09;5085667;29;20133;-79
2022/05/13 06:47:31;;;;;;;0.38;0.38;;;;;;;13.68;56.33;101411.06;5100641;29;20434;-79
2022/05/13 06:50:05;;;;;;;0.47;0.47;;;;;;;13.70;56.34;101409.25;5124078;28;20358;-80
2022/05/13 06:52:35;;;;;;;0.73;0.73;;;;;;;13.64;57.21;101405.00;5139138;28;20133;-79
2022/05/13 06:55:07;;;;;;;0.50;0.50;;;;;;;13.68;56.74;101411.06;5137396;28;20117;-79
2022/05/13 06:57:40;;;;;;;0.60;0.60;;;;;;;13.60;57.31;101410.41;5138410;28;20473;-80
2022/05/13 07:00:11;;;;;;;;;;;;;;;13.65;57.23;101411.16;5125269;28;20042;-78
2022/05/13 07:02:41;;;;;;;0.28;0.28;;;;;;;13.64;56.84;101418.19;5136213;28;19914;-78
2022/05/13 07:05:17;;;;;;;0.65;0.55;;;;;;;13.69;56.66;101412.78;5118408;28;20035;-79
2022/05/13 07:07:48;;;;;;;1.02;0.60;;;;;;;13.60;56.62;101413.03;5105097;28;20027;-79
2022/05/13 07:10:19;;;;;;;0.43;0.43;;;;;;;13.69;56.86;101410.16;5145290;28;20594;-78
2022/05/13 07:12:52;;;;;;;0.93;0.77;;;;;;;13.67;56.72;101414.63;5123242;28;20034;-78
2022/05/13 07:15:25;;;;;;;0.35;0.35;;;;;;;13.77;57.09;101425.75;5123160;28;20386;-78
2022/05/13 07:17:56;;;;;;;0.30;0.30;;;;;;;13.86;56.73;101422.84;5143995;28;20030;-79
2022/05/13 07:20:31;;;;;;;2.60;0.68;;;;;;;13.95;56.27;101429.63;5114062;28;20058;-77
2022/05/13 07:23:02;;;;;;;0.30;0.30;;;;;;;14.03;56.02;101432.03;5130730;28;20018;-77
2022/05/13 07:25:33;;;;;;;0.70;0.38;;;;;;;14.07;56.23;101429.28;5137735;28;20470;-76
2022/05/13 07:28:06;;;;;;;0.80;0.80;;;;;;;14.17;55.48;101430.69;5146835;28;20042;-81
2022/05/13 07:30:37;;;;;;;0.20;0.20;;;;;;;14.23;56.08;101428.78;5111198;28;20094;-78
2022/05/13 07:33:08;;;;;;;0.60;0.60;;;;;;;14.38;55.51;101438.03;5108844;29;20031;-77
2022/05/13 07:35:38;;;;;;;0.65;0.65;;;;;;;14.44;55.69;101441.31;5093692;29;20047;-79
2022/05/13 07:38:09;;;;;;;2.60;1.92;;;;;;;14.48;55.89;101448.22;5126223;28;20023;-79
2022/05/13 07:43:30;;;;;;;0.63;0.63;;;;;;;14.62;55.21;101462.75;5124336;28;20062;-79
2022/05/13 07:46:02;;;;;;;0.45;0.45;;;;;;;14.61;55.69;101453.97;5141689;28;20117;-79
2022/05/13 07:48:33;;;;;;;1.60;0.67;;;;;;;14.68;54.56;101467.88;5102582;28;20039;-79
2022/05/13 07:51:13;;;;;;;0.30;0.30;;;;;;;14.75;54.44;101460.63;5105950;28;21030;-79
2022/05/13 07:53:44;;;;;;;0.57;0.57;;;;;;;14.75;54.60;101458.81;5139231;28;20027;-79
2022/05/13 07:56:14;;;;;;;0.70;0.65;;;;;;;14.70;54.96;101460.75;5133323;28;20607;-78
2022/05/13 07:58:46;;;;;;;0.63;0.63;;;;;;;14.59;54.83;101463.72;5145690;28;20026;-77
2022/05/13 08:01:17;;;;;;;0.93;0.93;;;;;;;14.70;55.15;101462.56;5134393;28;20102;-79
2022/05/13 08:03:49;;;;;;;0.40;0.40;;;;;;;14.68;55.17;101467.88;5131038;28;20030;-78
2022/05/13 08:06:19;;;;;;;0.40;0.40;;;;;;;14.83;54.43;101460.38;5130916;28;20061;-80
2022/05/13 08:08:56;;;;;;;1.65;1.20;;;;;;;14.78;54.72;101461.38;5131785;28;20054;-79
2022/05/13 08:11:30;;;;;;;3.60;0.95;;;;;;;14.76;54.28;101455.28;5099393;28;20039;-78
2022/05/13 08:14:01;;;;;;;0.20;0.20;;;;;;;14.87;54.18;101451.41;5114634;28;20134;-80
2022/05/13 08:16:36;;;;;;;0.40;0.40;;;;;;;14.84;54.78;101452.38;5136109;28;20062;-81
2022/05/13 08:19:06;;;;;;;10.10;0.88;;;;;;;14.96;54.69;101459.03;5157484;28;20102;-80
2022/05/13 08:21:37;;;;;;;0.30;0.30;;;;;;;14.90;54.44;101461.91;5134431;28;20085;-79
2022/05/13 08:24:08;;;;;;;0.20;0.20;;;;;;;14.98;54.35;101465.16;5152456;28;20462;-81
2022/05/13 08:26:38;;;;;;;0.90;0.57;;;;;;;15.05;54.04;101461.38;5149245;28;20035;-79
2022/05/13 08:29:09;;;;;;;0.35;0.35;;;;;;;14.99;54.24;101466.00;5147159;28;20485;-81
2022/05/13 08:31:40;;;;;;;0.73;0.73;;;;;;;15.00;54.59;101465.94;5108637;28;20034;-78
2022/05/13 08:34:12;;;;;;;0.63;0.63;;;;;;;14.99;54.56;101471.28;5122015;28;20635;-80
2022/05/13 08:36:43;;;;;;;0.52;0.52;;;;;;;15.11;54.35;101461.16;5145935;28;20141;-81
2022/05/13 08:39:14;;;;;;;2.88;1.40;;;;;;;15.02;55.01;101464.09;5127353;28;20382;-79
2022/05/13 08:42:07;;;;;;;1.55;0.75;;;;;;;15.15;54.57;101466.34;5161345;28;20069;-78
2022/05/13 08:44:38;;;;;;;1.88;0.65;;;;;;;15.34;54.10;101472.72;5131600;28;20034;-79
2022/05/13 08:47:30;;;;;;;0.20;0.20;;;;;;;15.23;54.35;101465.16;5153536;28;20034;-80
2022/05/13 08:50:15;;;;;;;0.35;0.35;;;;;;;15.15;55.32;101469.84;5124362;28;20402;-81
2022/05/13 08:53:07;;;;;;;0.55;0.55;;;;;;;15.26;54.37;101473.00;5151853;28;20407;-80
2022/05/13 08:55:42;;;;;;;0.20;0.20;;;;;;;15.24;55.05;101474.81;5105021;28;20073;-79
2022/05/13 08:58:28;;;;;;;0.40;0.40;;;;;;;15.23;54.97;101466.94;5131086;28;20113;-80
2022/05/13 09:01:11;;;;;;;0.45;0.45;;;;;;;15.20;55.07;101474.97;5133892;28;20402;-81
2022/05/13 09:03:48;;;;;;;0.65;0.65;;;;;;;15.15;54.36;101477.78;5137347;28;20037;-81
2022/05/13 09:06:37;;;;;;;0.45;0.45;;;;;;;15.22;54.13;101478.44;5141359;28;20014;-82
2022/05/13 09:09:11;;;;;;;0.20;0.20;;;;;;;15.16;54.56;101483.94;5114562;28;20049;-82
2022/05/13 09:11:49;;;;;;;0.20;0.20;;;;;;;15.24;54.04;101476.63;5147659;28;20759;-81
2022/05/13 09:14:31;;;;;;;0.75;0.75;;;;;;;15.24;53.80;101482.75;5118537;28;20101;-82
2022/05/13 09:17:29;;;;;;;0.30;0.30;;;;;;;15.31;53.51;101478.13;5137852;28;20042;-81
2022/05/13 09:20:16;;;;;;;0.30;0.30;;;;;;;15.29;53.31;101477.31;5163426;28;20094;-78
2022/05/13 09:22:58;;;;;;;0.30;0.30;;;;;;;15.34;53.91;101477.16;5161251;28;20035;-82
2022/05/13 09:25:55;;;;;;;0.40;0.40;;;;;;;15.42;53.44;101477.75;5125465;28;20047;-80
2022/05/13 09:28:27;;;;;;;1.13;0.88;;;;;;;15.45;52.97;101476.75;5111776;28;20109;-79
2022/05/13 09:31:18;;;;;;;0.28;0.28;;;;;;;15.49;53.37;101470.47;5124831;28;20097;-81
2022/05/13 09:33:49;;;;;;;0.50;0.50;;;;;;;15.52;53.29;101465.03;5147240;28;20134;-81
2022/05/13 09:36:21;;;;;;;0.50;0.50;;;;;;;15.57;53.34;101476.34;5135124;28;20092;-81
2022/05/13 09:39:00;;;;;;;0.85;0.85;;;;;;;15.59;51.88;101471.84;5120110;28;20105;-81
2022/05/13 09:41:35;;;;;;;0.63;0.63;;;;;;;15.63;51.72;101478.75;5106398;29;20031;-82
2022/05/13 09:44:10;;;;;;;0.52;0.52;;;;;;;15.73;50.88;101472.22;5090038;29;20035;-81
2022/05/13 09:46:50;;;;;;;0.20;0.20;;;;;;;15.74;50.76;101473.06;5105994;29;20031;-81
2022/05/13 09:49:28;;;;;;;0.20;0.20;;;;;;;15.82;51.04;101462.22;5093131;28;20098;-81
2022/05/13 09:52:34;;;;;;;0.30;0.30;;;;;;;15.89;51.59;101469.03;5089413;29;20090;-82
2022/05/13 09:55:33;;;;;;;0.20;0.20;;;;;;;15.95;50.98;101466.13;5096810;29;20280;-81
2022/05/13 09:58:10;;;;;;;0.40;0.40;;;;;;;16.04;49.30;101452.56;5106875;29;20046;-80
2022/05/13 10:00:43;;;;;;;0.30;0.30;;;;;;;15.94;48.64;101461.75;5114927;28;20059;-80
2022/05/13 10:03:29;;;;;;;0.20;0.20;;;;;;;16.05;48.85;101466.66;5105545;29;20359;-81
2022/05/13 10:06:08;;;;;;;4.72;1.50;;;;;;;16.09;48.58;101460.31;5120422;28;20043;-81
2022/05/13 10:13:57;;;;;;;0.17;0.17;;;;;;;16.10;49.26;101467.34;5089017;28;20204;-81
2022/05/13 10:14:41;;;;;;;0.63;0.63;;;;;;;16.24;47.22;101472.09;5098600;28;20043;-82
2022/05/13 10:17:12;;;;;;;0.17;0.17;;;;;;;16.35;47.34;101467.25;5119915;29;20057;-81
2022/05/13 10:19:51;;;;;;;0.20;0.20;;;;;;;16.40;46.71;101467.06;5105166;29;20062;-80
2022/05/13 10:22:26;;;;;;;1.40;0.55;;;;;;;16.43;45.95;101468.72;5104958;29;20117;-81
2022/05/13 10:25:03;;;;;;;0.30;0.30;;;;;;;16.45;46.21;101461.59;5104520;29;20039;-82
2022/05/13 10:27:52;;;;;;;0.20;0.20;;;;;;;16.41;46.00;101465.25;5105540;29;20027;-81
2022/05/13 10:30:33;;;;;;;0.40;0.40;;;;;;;16.47;46.91;101471.19;5104129;28;20043;-81
2022/05/13 10:33:16;;;;;;;0.30;0.30;;;;;;;16.52;45.65;101473.66;5101818;29;20534;-79
2022/05/13 10:36:10;;;;;;;0.60;0.60;;;;;;;16.63;46.43;101468.78;5108370;29;20047;-81
2022/05/13 10:38:43;;;;;;;0.30;0.30;;;;;;;16.68;45.95;101466.81;5105539;28;20043;-81
2022/05/13 10:41:36;;;;;;;0.30;0.30;;;;;;;16.73;45.52;101473.72;5096107;29;20106;-81
2022/05/13 10:44:37;;;;;;;0.43;0.43;;;;;;;16.77;45.90;101472.66;5124638;28;20040;-80
2022/05/13 10:47:32;;;;;;;3.60;0.82;;;;;;;16.86;45.48;101469.63;5116665;29;20094;-79
2022/05/13 10:50:38;;;;;;;0.20;0.20;;;;;;;16.91;44.95;101472.94;5103023;28;20048;-81
2022/05/13 10:53:13;;;;;;;6.03;1.85;;;;;;;16.96;45.32;101478.97;5094719;29;20043;-80
2022/05/13 10:56:40;;;;;;;2.70;1.40;;;;;;;17.06;44.99;101478.59;5126565;28;20042;-81
2022/05/13 10:59:16;;;;;;;1.88;1.33;;;;;;;17.07;44.91;101475.84;5131474;28;20065;-80
2022/05/13 11:01:52;;;;;;;0.40;0.40;;;;;;;17.07;45.05;101464.38;5129182;28;20035;-81
2022/05/13 11:04:36;;;;;;;0.28;0.28;;;;;;;17.17;45.48;101468.34;5112670;28;20074;-81
2022/05/13 11:07:21;;;;;;;;;;;;;;;17.23;45.08;101468.09;5127802;28;20037;-80
2022/05/13 11:10:03;;;;;;;0.20;0.20;;;;;;;17.42;44.40;101469.94;5119601;28;20009;-82
2022/05/13 11:12:55;;;;;;;0.20;0.20;;;;;;;17.35;45.21;101468.50;5094030;29;20687;-80
2022/05/13 11:15:41;;;;;;;0.20;0.20;;;;;;;17.35;44.64;101463.19;5108338;28;20047;-81
2022/05/13 11:18:49;;;;;;;2.15;1.75;;;;;;;17.45;44.78;101469.81;5120976;28;20027;-81
2022/05/13 11:21:38;;;;;;;0.28;0.28;;;;;;;17.43;45.18;101471.66;5129689;28;20061;-81
2022/05/13 11:27:30;;;;;;;0.52;0.38;;;;;;;17.49;43.61;101459.94;5143090;28;20038;-82
2022/05/13 11:30:10;;;;;;;0.20;0.20;;;;;;;17.51;44.18;101474.84;5139690;28;20035;-81
2022/05/13 11:32:54;;;;;;;0.50;0.50;;;;;;;17.54;43.90;101477.38;5140145;28;20046;-82
2022/05/13 11:35:38;;;;;;;0.20;0.20;;;;;;;17.57;44.25;101463.09;5125492;28;20089;-81
2022/05/13 11:38:18;;;;;;;1.17;1.08;;;;;;;17.71;43.93;101467.81;5130549;28;20038;-82
2022/05/13 11:40:57;;;;;;;0.30;0.30;;;;;;;17.58;43.54;101455.06;5134667;28;20145;-81
2022/05/13 11:44:07;;;;;;;4.07;1.08;;;;;;;17.65;43.88;101465.41;5132908;28;20114;-81
2022/05/13 11:47:08;;;;;;;0.20;0.20;;;;;;;17.71;43.70;101462.50;5151442;28;20053;-82
2022/05/13 11:49:43;;;;;;;0.40;0.40;;;;;;;17.77;43.96;101467.50;5112529;28;20646;-82
2022/05/13 11:52:35;;;;;;;0.50;0.50;;;;;;;17.79;43.91;101468.31;5125625;28;20046;-80
2022/05/13 11:55:11;;;;;;;0.35;0.35;;;;;;;17.90;43.63;101450.09;5155834;28;20069;-81
2022/05/13 11:57:46;;;;;;;1.20;0.98;;;;;;;17.92;43.70;101458.84;5121649;28;20045;-81
2022/05/13 12:00:41;;;;;;;0.50;0.50;;;;;;;17.82;43.48;101454.88;5111551;28;20043;-82
2022/05/13 12:03:12;;;;;;;1.13;0.68;;;;;;;17.97;44.44;101463.13;5130839;28;20069;-81
2022/05/13 12:06:10;;;;;;;;;;;;;;;;;;;;;
2022/05/13 12:08:55;;;;;;;0.52;0.50;;;;;;;18.11;43.29;101470.41;5146029;28;20042;-82
2022/05/13 12:11:32;;;;;;;0.20;0.20;;;;;;;18.19;43.57;101463.84;5145582;28;20434;-81
2022/05/13 12:14:10;;;;;;;0.50;0.50;;;;;;;18.16;42.71;101463.97;5143060;28;20114;-81
2022/05/13 12:16:55;;;;;;;1.50;1.40;;;;;;;18.23;42.89;101465.38;5112976;28;20045;-81
2022/05/13 12:19:26;;;;;;;0.57;0.57;;;;;;;18.36;43.20;101468.31;5141503;28;20114;-83
2022/05/13 12:22:05;;;;;;;0.20;0.20;;;;;;;18.45;43.11;101467.03;5136288;28;20053;-85
2022/05/13 12:25:09;;;;;;;15.18;1.95;;;;;;;18.50;42.63;101462.34;5108582;28;20468;-83
2022/05/13 12:27:46;;;;;;;0.50;0.50;;;;;;;18.51;42.64;101466.72;5127929;28;20034;-84
2022/05/13 12:30:31;;;;;;;0.60;0.60;;;;;;;18.70;42.55;101458.72;5108575;28;20043;-84